This is the latest recevied weather packets stored in our database for station/object EA3ANS-1. If no packets are shown the sender has not sent any weather packets the latest 10 day(s).
| Time | Temp. | Humidity | Pressure | Rain* | Wind** | Luminosity | Snow |
|---|---|---|---|---|---|---|---|
| 1777498229 | 17.78° C | - | 1014.1 hPa | 0 mm | 1.34 m/s, 121° | - | - |
| 1777496433 | 18.33° C | - | 1013.7 hPa | 0 mm | 1.34 m/s, 139° | - | - |
| 1777490432 | 19.44° C | - | 1012.6 hPa | 0 mm | 0.89 m/s, 162° | - | - |
| 1777482637 | 22.78° C | - | 1011.2 hPa | 0 mm | 2.68 m/s, 148° | - | - |
| 1777474837 | 24.44° C | - | 1010.9 hPa | 0 mm | 2.68 m/s, 91° | - | - |
| 1777472434 | 23.89° C | - | 1011.3 hPa | 0 mm | 0.89 m/s, 101° | - | - |
| 1777470636 | 23.33° C | - | 1011.5 hPa | 0 mm | 2.24 m/s, 150° | - | - |
| 1777465836 | 21.67° C | - | 1011.7 hPa | 0 mm | 4.47 m/s, 200° | - | - |
| 1777465232 | 21.67° C | - | 1011.9 hPa | 0 mm | 3.58 m/s, 193° | - | - |
| 1777464033 | 22.22° C | - | 1012 hPa | 0 mm | 3.13 m/s, 165° | - | - |
| 1777462233 | 21.67° C | - | 1012.3 hPa | 0 mm | 4.47 m/s, 129° | - | - |
| 1777461636 | 21.67° C | - | 1012.4 hPa | 0 mm | 5.36 m/s, 184° | - | - |
| 1777458043 | 20° C | - | 1012.4 hPa | 0 mm | 3.58 m/s, 177° | - | - |
| 1777457446 | 20.56° C | - | 1012.3 hPa | 0 mm | 2.24 m/s, 160° | - | - |
| 1777456838 | 20.56° C | - | 1012.1 hPa | 0 mm | 4.02 m/s, 117° | - | - |
| 1777455637 | 20.56° C | - | 1012.3 hPa | 0 mm | 4.02 m/s, 132° | - | - |
| 1777455030 | 20° C | - | 1012.1 hPa | 0 mm | 1.79 m/s, 131° | - | - |
| 1777454433 | 20° C | - | 1012 hPa | 0 mm | 3.58 m/s, 162° | - | - |
| 1777453834 | 20° C | - | 1011.8 hPa | 0 mm | 2.68 m/s, 153° | - | - |
| 1777453233 | 21.11° C | - | 1011.7 hPa | 0 mm | 1.34 m/s, 158° | - | - |
| 1777452028 | 19.44° C | - | 1011.8 hPa | 0 mm | 0.45 m/s, 257° | - | - |
| 1777451430 | 19.44° C | - | 1011.8 hPa | 0 mm | 1.79 m/s, 166° | - | - |
| 1777450833 | 19.44° C | - | 1011.7 hPa | 0 mm | 0.89 m/s, 62° | - | - |
| 1777450227 | 18.33° C | - | 1011.7 hPa | 0 mm | 0.89 m/s, 195° | - | - |
| 1777449630 | 17.78° C | - | 1011.5 hPa | 0 mm | 0.89 m/s, 187° | - | - |
* Rain latest hour (hover to see other rain measurements)
** Current wind speed in m/s (hover to see current wind gust speed)